Time;durP1;ratioP1;P1;durP2;ratioP2;P2;SDS_P1;SDS_P2;PMS_P1;PMS_P2;Temp;Humidity;BMP_temperature;BMP_pressure;BME280_temperature;BME280_humidity;BME280_pressure;Samples;Min_cycle;Max_cycle;Signal;HPM_P1;HPM_P2
2022/01/27 00:04:52;;;;;;;19.75;9.05;;;;;;;;;;8429195;28;20068;-79
2022/01/27 00:09:05;;;;;;;21.88;9.40;;;;;;;;;;8429655;28;20059;-79
2022/01/27 00:13:12;;;;;;;;;;;;;;;;;;8430013;28;20075;-79
2022/01/27 00:17:25;;;;;;;16.70;7.93;;;;;;;;;;8429128;28;19924;-79
2022/01/27 00:21:31;;;;;;;27.80;11.02;;;;;;;;;;8434767;28;20058;-78
2022/01/27 00:25:35;;;;;;;18.85;9.10;;;;;;;;;;8435368;28;20044;-78
2022/01/27 00:29:38;;;;;;;21.27;9.57;;;;;;;;;;8435291;28;20052;-79
2022/01/27 00:33:40;;;;;;;17.27;8.05;;;;;;;;;;8434812;28;20056;-79
2022/01/27 00:37:43;;;;;;;18.02;8.98;;;;;;;;;;8434999;28;20071;-78
2022/01/27 00:41:47;;;;;;;19.48;8.73;;;;;;;;;;8434785;28;20047;-78
2022/01/27 00:45:50;;;;;;;17.05;7.72;;;;;;;;;;8421212;28;20036;-78
2022/01/27 00:49:53;;;;;;;18.92;8.90;;;;;;;;;;8434976;28;20063;-79
2022/01/27 00:54:03;;;;;;;32.10;12.70;;;;;;;;;;8428245;28;20117;-80
2022/01/27 00:58:22;;;;;;;17.60;7.72;;;;;;;;;;8434863;28;20483;-78
2022/01/27 01:02:36;;;;;;;21.83;9.38;;;;;;;;;;8434218;28;20036;-78
2022/01/27 01:06:43;;;;;;;35.58;16.40;;;;;;;;;;8434001;28;20047;-79
2022/01/27 01:15:17;;;;;;;14.82;7.80;;;;;;;;;;8431898;28;20048;-78
2022/01/27 01:19:33;;;;;;;18.52;8.43;;;;;;;;;;8434095;28;20044;-79
2022/01/27 01:32:29;;;;;;;18.52;7.78;;;;;;;;;;8433243;28;20052;-79
2022/01/27 01:36:37;;;;;;;16.38;7.47;;;;;;;;;;8426529;28;20449;-79
2022/01/27 01:40:40;;;;;;;19.70;8.02;;;;;;;;;;8418101;28;20047;-80
2022/01/27 01:44:43;;;;;;;18.08;7.72;;;;;;;;;;8416155;28;20060;-79
2022/01/27 01:48:48;;;;;;;17.98;7.75;;;;;;;;;;8420065;28;20059;-80
2022/01/27 01:52:53;;;;;;;23.35;11.20;;;;;;;;;;8422381;28;20068;-78
2022/01/27 01:56:55;;;;;;;18.63;8.18;;;;;;;;;;8418990;28;20494;-79
2022/01/27 02:00:58;;;;;;;17.52;7.65;;;;;;;;;;8423257;28;20055;-79
2022/01/27 02:05:02;;;;;;;17.73;8.75;;;;;;;;;;8418926;28;20043;-81
2022/01/27 02:09:17;;;;;;;18.00;7.40;;;;;;;;;;8426603;28;20068;-79
2022/01/27 02:22:03;;;;;;;15.70;7.95;;;;;;;;;;8424146;28;20525;-79
2022/01/27 02:26:06;;;;;;;17.38;7.03;;;;;;;;;;8431556;28;20044;-79
2022/01/27 02:30:09;;;;;;;17.77;8.05;;;;;;;;;;8431394;28;20047;-79
2022/01/27 02:34:11;;;;;;;15.50;6.97;;;;;;;;;;8424527;28;20060;-78
2022/01/27 02:38:15;;;;;;;13.70;6.75;;;;;;;;;;8431619;28;20052;-79
2022/01/27 02:42:22;;;;;;;15.38;7.13;;;;;;;;;;8425303;28;20063;-80
2022/01/27 02:46:31;;;;;;;16.48;7.65;;;;;;;;;;8424093;28;20040;-79
2022/01/27 02:50:34;;;;;;;17.10;8.65;;;;;;;;;;8422985;28;20047;-79
2022/01/27 02:54:38;;;;;;;14.57;7.25;;;;;;;;;;8429152;28;20040;-80
2022/01/27 02:58:40;;;;;;;13.70;6.70;;;;;;;;;;8428196;28;20055;-80
2022/01/27 03:02:43;;;;;;;14.70;7.32;;;;;;;;;;8426609;28;20039;-79
2022/01/27 03:06:47;;;;;;;16.25;7.57;;;;;;;;;;8415450;28;20047;-78
2022/01/27 03:10:59;;;;;;;17.02;7.30;;;;;;;;;;8423623;28;20055;-78
2022/01/27 03:15:01;;;;;;;14.82;7.20;;;;;;;;;;8430176;28;20052;-78
2022/01/27 03:19:04;;;;;;;13.80;6.53;;;;;;;;;;8430104;28;20094;-79
2022/01/27 03:23:07;;;;;;;13.90;7.10;;;;;;;;;;8429935;28;20052;-78
2022/01/27 03:27:17;;;;;;;19.40;8.23;;;;;;;;;;8430422;28;20051;-78
2022/01/27 03:31:19;;;;;;;16.95;8.13;;;;;;;;;;8429905;28;20063;-78
2022/01/27 03:35:22;;;;;;;16.65;7.10;;;;;;;;;;8429525;28;20063;-78
2022/01/27 03:39:26;;;;;;;14.27;6.95;;;;;;;;;;8429885;28;20044;-78
2022/01/27 03:43:30;;;;;;;15.43;7.80;;;;;;;;;;8429610;28;20048;-79
2022/01/27 03:47:32;;;;;;;22.27;8.77;;;;;;;;;;8429557;28;20048;-77
2022/01/27 03:51:35;;;;;;;18.33;8.55;;;;;;;;;;8429545;28;20051;-79
2022/01/27 03:55:37;;;;;;;16.65;8.63;;;;;;;;;;8434167;28;20411;-79
2022/01/27 03:59:41;;;;;;;20.33;9.95;;;;;;;;;;8429733;28;20055;-78
2022/01/27 04:03:44;;;;;;;18.10;7.78;;;;;;;;;;8436437;28;20067;-79
2022/01/27 04:07:48;;;;;;;20.00;8.55;;;;;;;;;;8435961;28;20051;-78
2022/01/27 04:11:50;;;;;;;20.02;9.98;;;;;;;;;;8435803;28;20047;-80
2022/01/27 04:15:54;;;;;;;18.92;8.52;;;;;;;;;;8435662;28;20040;-79
2022/01/27 04:19:56;;;;;;;22.88;10.85;;;;;;;;;;8435553;28;20052;-78
2022/01/27 04:23:59;;;;;;;18.67;8.95;;;;;;;;;;8435864;28;20472;-79
2022/01/27 04:28:05;;;;;;;32.15;12.85;;;;;;;;;;8435342;28;20106;-78
2022/01/27 04:32:11;;;;;;;21.33;10.32;;;;;;;;;;8434983;28;20059;-80
2022/01/27 04:36:20;;;;;;;19.55;10.63;;;;;;;;;;8435548;28;20063;-78
2022/01/27 04:40:28;;;;;;;49.28;21.23;;;;;;;;;;8435488;28;20480;-79
2022/01/27 04:44:36;;;;;;;22.90;10.82;;;;;;;;;;8434924;28;20044;-80
2022/01/27 04:48:44;;;;;;;25.55;12.52;;;;;;;;;;8435242;28;20054;-79
2022/01/27 04:52:49;;;;;;;33.00;13.45;;;;;;;;;;8435043;28;20067;-78
2022/01/27 04:56:53;;;;;;;43.22;15.95;;;;;;;;;;8434389;28;20052;-79
2022/01/27 05:00:57;;;;;;;41.60;17.27;;;;;;;;;;8434744;28;20048;-79
2022/01/27 05:05:02;;;;;;;40.88;17.58;;;;;;;;;;8434116;28;20048;-79
2022/01/27 05:09:05;;;;;;;30.73;13.50;;;;;;;;;;8434486;28;20116;-77
2022/01/27 05:13:11;;;;;;;38.30;13.30;;;;;;;;;;8433824;28;20047;-78
2022/01/27 05:17:17;;;;;;;40.30;15.80;;;;;;;;;;8434324;28;20047;-79
2022/01/27 05:21:21;;;;;;;45.75;15.60;;;;;;;;;;8434139;28;20472;-78
2022/01/27 05:25:23;;;;;;;38.67;14.07;;;;;;;;;;8434060;28;20044;-78
2022/01/27 05:29:26;;;;;;;50.00;18.10;;;;;;;;;;8433350;28;20054;-79
2022/01/27 05:33:29;;;;;;;48.58;16.27;;;;;;;;;;8433016;28;20075;-78
2022/01/27 05:37:33;;;;;;;42.05;16.98;;;;;;;;;;8433343;28;20594;-79
2022/01/27 05:41:35;;;;;;;49.70;15.75;;;;;;;;;;8426718;28;20044;-77
2022/01/27 05:45:39;;;;;;;47.65;16.05;;;;;;;;;;8433131;28;20096;-79
2022/01/27 05:49:41;;;;;;;47.83;18.58;;;;;;;;;;8432657;28;20073;-79
2022/01/27 05:53:46;;;;;;;55.53;19.52;;;;;;;;;;8432520;28;20051;-78
2022/01/27 05:57:48;;;;;;;57.10;18.00;;;;;;;;;;8432422;28;20097;-78
2022/01/27 06:01:51;;;;;;;67.78;29.27;;;;;;;;;;8432253;28;20048;-79
2022/01/27 06:05:53;;;;;;;75.18;33.90;;;;;;;;;;8432234;28;20068;-79
2022/01/27 06:09:58;;;;;;;57.13;19.23;;;;;;;;;;8432652;28;20524;-79
2022/01/27 06:14:00;;;;;;;58.47;24.05;;;;;;;;;;8432327;28;20509;-78
2022/01/27 06:18:03;;;;;;;78.20;27.88;;;;;;;;;;8430950;28;20040;-79
2022/01/27 06:22:11;;;;;;;69.05;21.98;;;;;;;;;;8431731;28;20097;-79
2022/01/27 06:26:16;;;;;;;52.17;17.98;;;;;;;;;;8432115;28;20047;-78
2022/01/27 06:30:18;;;;;;;49.35;17.92;;;;;;;;;;8431481;28;20048;-79
2022/01/27 06:34:21;;;;;;;53.35;20.30;;;;;;;;;;8430336;28;20457;-80
2022/01/27 06:38:24;;;;;;;67.35;22.73;;;;;;;;;;8431181;28;20127;-77
2022/01/27 06:42:28;;;;;;;47.05;17.48;;;;;;;;;;8431212;28;20066;-80
2022/01/27 06:46:32;;;;;;;45.10;16.52;;;;;;;;;;8424575;28;20131;-79
2022/01/27 06:50:37;;;;;;;52.65;17.17;;;;;;;;;;8424601;28;20055;-78
2022/01/27 06:54:39;;;;;;;50.17;16.65;;;;;;;;;;8427362;28;20074;-80
2022/01/27 06:58:44;;;;;;;46.67;16.73;;;;;;;;;;8425050;28;20495;-79
2022/01/27 07:02:46;;;;;;;52.80;19.55;;;;;;;;;;8426960;28;20044;-77
2022/01/27 07:06:52;;;;;;;55.35;20.58;;;;;;;;;;8407792;28;20066;-79
2022/01/27 07:10:54;;;;;;;55.17;17.67;;;;;;;;;;8407151;28;20036;-79
2022/01/27 07:14:59;;;;;;;51.40;17.27;;;;;;;;;;8413728;28;20052;-79
2022/01/27 07:19:02;;;;;;;50.67;20.45;;;;;;;;;;8430701;28;20395;-79
2022/01/27 07:23:07;;;;;;;61.15;20.10;;;;;;;;;;8430113;28;20131;-79
2022/01/27 07:27:10;;;;;;;48.65;17.35;;;;;;;;;;8429828;28;20133;-79
2022/01/27 07:31:15;;;;;;;64.03;26.08;;;;;;;;;;8429821;28;20080;-78
2022/01/27 07:35:18;;;;;;;46.20;18.15;;;;;;;;;;8429566;28;20059;-77
2022/01/27 07:39:21;;;;;;;41.85;16.70;;;;;;;;;;8429282;28;20048;-77
2022/01/27 07:43:24;;;;;;;57.17;22.83;;;;;;;;;;8424821;28;20097;-79
2022/01/27 07:47:28;;;;;;;56.47;19.92;;;;;;;;;;8430088;28;20439;-80
2022/01/27 07:51:31;;;;;;;51.97;21.13;;;;;;;;;;8430064;28;20483;-78
2022/01/27 07:55:34;;;;;;;50.67;20.85;;;;;;;;;;8429545;28;20422;-80
2022/01/27 07:59:37;;;;;;;45.85;17.60;;;;;;;;;;8420360;28;20532;-80
2022/01/27 08:03:41;;;;;;;59.05;21.88;;;;;;;;;;8429362;28;20044;-80
2022/01/27 08:07:44;;;;;;;42.00;18.02;;;;;;;;;;8429753;28;20040;-80
2022/01/27 08:11:47;;;;;;;46.38;16.80;;;;;;;;;;8428968;28;20048;-81
2022/01/27 08:15:50;;;;;;;39.50;16.38;;;;;;;;;;8416319;28;20052;-82
2022/01/27 08:19:55;;;;;;;38.92;15.35;;;;;;;;;;8422065;28;20517;-80
2022/01/27 08:23:59;;;;;;;42.47;17.67;;;;;;;;;;8425005;28;20071;-80
2022/01/27 08:28:06;;;;;;;31.17;12.02;;;;;;;;;;8429352;28;20040;-81
2022/01/27 08:32:16;;;;;;;41.30;16.15;;;;;;;;;;8428205;28;20094;-80
2022/01/27 08:36:23;;;;;;;33.15;13.93;;;;;;;;;;8428963;28;20055;-80
2022/01/27 08:40:26;;;;;;;27.40;13.25;;;;;;;;;;8431237;28;20055;-79
2022/01/27 08:44:30;;;;;;;31.75;12.95;;;;;;;;;;8434764;28;20131;-79
2022/01/27 08:48:35;;;;;;;31.63;13.20;;;;;;;;;;8434842;28;20138;-79
2022/01/27 08:52:42;;;;;;;33.15;15.32;;;;;;;;;;8434622;28;20056;-79
2022/01/27 08:56:45;;;;;;;34.42;14.38;;;;;;;;;;8434596;28;20047;-81
2022/01/27 09:00:48;;;;;;;32.00;14.75;;;;;;;;;;8434397;28;20059;-80
2022/01/27 09:04:52;;;;;;;31.35;16.05;;;;;;;;;;8434231;28;20047;-80
2022/01/27 09:08:59;;;;;;;39.78;17.52;;;;;;;;;;8434444;28;20509;-79
2022/01/27 09:13:02;;;;;;;36.80;17.05;;;;;;;;;;8433979;28;20476;-80
2022/01/27 09:17:06;;;;;;;36.05;14.65;;;;;;;;;;8434162;28;20423;-81
2022/01/27 09:21:15;;;;;;;27.13;12.35;;;;;;;;;;8433786;28;20093;-80
2022/01/27 09:25:24;;;;;;;27.88;13.82;;;;;;;;;;8433828;28;20048;-80
2022/01/27 09:29:29;;;;;;;28.52;13.02;;;;;;;;;;8433971;28;20136;-80
2022/01/27 09:33:32;;;;;;;25.95;12.20;;;;;;;;;;8433148;28;20062;-80
2022/01/27 09:37:35;;;;;;;24.40;11.20;;;;;;;;;;8426661;28;20058;-80
2022/01/27 09:41:41;;;;;;;24.98;12.55;;;;;;;;;;8433226;28;20048;-79
2022/01/27 09:45:44;;;;;;;27.33;13.02;;;;;;;;;;8432820;28;20047;-78
2022/01/27 09:49:53;;;;;;;32.10;13.48;;;;;;;;;;8433326;28;20044;-80
2022/01/27 09:53:57;;;;;;;30.00;14.13;;;;;;;;;;8429001;28;20040;-79
2022/01/27 09:58:03;;;;;;;26.95;11.57;;;;;;;;;;8401984;28;20232;-79
2022/01/27 10:02:10;;;;;;;24.65;12.85;;;;;;;;;;8425866;28;20137;-80
2022/01/27 10:06:16;;;;;;;25.73;12.23;;;;;;;;;;8432335;28;20047;-80
2022/01/27 10:10:21;;;;;;;26.75;12.95;;;;;;;;;;8426086;28;20423;-79
2022/01/27 10:14:37;;;;;;;25.13;10.77;;;;;;;;;;8424486;28;20052;-79
2022/01/27 10:18:44;;;;;;;21.58;11.40;;;;;;;;;;8427033;28;20102;-79
2022/01/27 10:23:14;;;;;;;24.67;10.85;;;;;;;;;;8431604;28;20048;-79
2022/01/27 10:27:28;;;;;;;30.10;12.48;;;;;;;;;;8431626;28;20040;-79
2022/01/27 10:31:39;;;;;;;22.08;10.90;;;;;;;;;;8431063;28;20043;-78
2022/01/27 10:35:45;;;;;;;20.33;10.60;;;;;;;;;;8421016;28;20059;-78
2022/01/27 10:40:05;;;;;;;20.42;10.45;;;;;;;;;;8429965;28;20134;-79
2022/01/27 10:44:17;;;;;;;25.15;11.18;;;;;;;;;;8423212;28;20089;-78
2022/01/27 10:48:36;;;;;;;37.85;17.58;;;;;;;;;;8412981;28;20044;-78
2022/01/27 10:52:57;;;;;;;19.75;9.23;;;;;;;;;;8407294;28;20415;-78
2022/01/27 10:57:13;;;;;;;22.45;10.27;;;;;;;;;;8430480;28;20145;-78
2022/01/27 11:01:41;;;;;;;22.48;11.45;;;;;;;;;;8429143;28;20044;-78
2022/01/27 11:06:01;;;;;;;16.38;8.15;;;;;;;;;;8430795;28;20047;-78
2022/01/27 11:10:19;;;;;;;15.18;7.60;;;;;;;;;;8428374;28;20066;-79
2022/01/27 11:14:32;;;;;;;20.50;9.98;;;;;;;;;;8430757;28;20479;-79
2022/01/27 11:18:45;;;;;;;23.17;11.48;;;;;;;;;;8430093;28;20048;-78
2022/01/27 11:27:15;;;;;;;27.13;13.57;;;;;;;;;;8419871;28;20436;-79
2022/01/27 11:31:37;;;;;;;22.52;10.60;;;;;;;;;;8428828;28;20040;-77
2022/01/27 11:35:40;;;;;;;22.97;10.50;;;;;;;;;;8429655;28;20105;-78
2022/01/27 11:39:53;;;;;;;39.38;18.38;;;;;;;;;;8429011;28;20375;-80
2022/01/27 11:44:22;;;;;;;31.23;14.13;;;;;;;;;;8429849;28;20048;-78
2022/01/27 11:48:27;;;;;;;26.33;13.27;;;;;;;;;;8429472;28;20040;-78
2022/01/27 11:52:32;;;;;;;22.05;11.00;;;;;;;;;;8422952;28;20487;-79
2022/01/27 11:56:37;;;;;;;23.27;9.40;;;;;;;;;;8426244;28;20052;-78
2022/01/27 12:00:41;;;;;;;22.38;9.38;;;;;;;;;;8428992;28;20055;-78
2022/01/27 12:04:44;;;;;;;23.38;8.93;;;;;;;;;;8427925;28;20044;-78
2022/01/27 12:08:47;;;;;;;19.30;8.77;;;;;;;;;;8429362;28;20044;-78
2022/01/27 12:12:52;;;;;;;21.73;10.38;;;;;;;;;;8428304;28;20044;-78
2022/01/27 12:17:35;;;;;;;19.15;9.38;;;;;;;;;;8419564;28;20040;-79
2022/01/27 12:22:06;;;;;;;19.30;9.15;;;;;;;;;;8463276;28;20039;-78
2022/01/27 12:26:11;;;;;;;16.80;7.45;;;;;;;;;;8472888;28;20031;-78
2022/01/27 12:30:17;;;;;;;18.92;8.80;;;;;;;;;;8471782;28;20059;-78
2022/01/27 12:34:21;;;;;;;16.13;8.20;;;;;;;;;;8472054;28;20052;-78
2022/01/27 12:38:24;;;;;;;17.95;8.55;;;;;;;;;;8470127;28;20059;-78
2022/01/27 12:42:32;;;;;;;18.52;8.25;;;;;;;;;;8470207;28;20044;-78
2022/01/27 12:46:38;;;;;;;17.70;8.93;;;;;;;;;;8462357;28;20368;-79
2022/01/27 12:50:41;;;;;;;15.30;8.10;;;;;;;;;;8453806;28;20067;-79
2022/01/27 12:54:48;;;;;;;21.38;9.43;;;;;;;;;;8454645;28;20072;-78
2022/01/27 12:58:52;;;;;;;41.35;17.67;;;;;;;;;;8453882;28;20403;-78
2022/01/27 13:03:01;;;;;;;25.83;12.30;;;;;;;;;;8453212;28;20051;-79
2022/01/27 13:07:05;;;;;;;30.50;14.30;;;;;;;;;;8445083;28;20084;-78
2022/01/27 13:11:11;;;;;;;24.63;11.75;;;;;;;;;;8459763;28;20050;-78
2022/01/27 13:15:19;;;;;;;36.15;16.90;;;;;;;;;;8430396;28;20044;-78
2022/01/27 13:19:38;;;;;;;35.03;16.05;;;;;;;;;;8409216;28;20045;-78
2022/01/27 13:23:46;;;;;;;35.47;16.15;;;;;;;;;;8425129;28;20044;-80
2022/01/27 13:28:07;;;;;;;53.28;21.17;;;;;;;;;;8423390;28;20052;-80
2022/01/27 13:32:11;;;;;;;52.45;21.00;;;;;;;;;;8424788;28;20057;-80
2022/01/27 13:36:19;;;;;;;22.73;11.68;;;;;;;;;;8422579;28;20518;-78
2022/01/27 13:44:56;;;;;;;23.42;13.23;;;;;;;;;;8417613;28;20040;-80
2022/01/27 13:49:07;;;;;;;45.08;17.63;;;;;;;;;;8423232;28;20040;-78
2022/01/27 13:53:13;;;;;;;52.80;19.92;;;;;;;;;;8425195;28;20049;-78
2022/01/27 13:57:18;;;;;;;46.58;18.52;;;;;;;;;;8428631;28;20466;-78
2022/01/27 14:01:22;;;;;;;37.20;19.15;;;;;;;;;;8420980;28;20051;-79
2022/01/27 14:05:24;;;;;;;38.40;17.15;;;;;;;;;;8420385;28;20118;-79
2022/01/27 14:09:30;;;;;;;37.97;16.50;;;;;;;;;;8420011;28;20045;-78
2022/01/27 14:13:33;;;;;;;191.60;62.15;;;;;;;;;;8420733;28;20045;-79
2022/01/27 14:17:36;;;;;;;33.22;15.10;;;;;;;;;;8425123;28;20104;-78
2022/01/27 14:21:44;;;;;;;82.80;28.83;;;;;;;;;;8425900;28;20040;-78
2022/01/27 14:25:54;;;;;;;39.95;18.00;;;;;;;;;;8429910;28;20051;-77
2022/01/27 14:29:57;;;;;;;43.40;18.40;;;;;;;;;;8419299;28;20040;-79
2022/01/27 14:34:00;;;;;;;33.38;15.48;;;;;;;;;;8429829;28;20060;-79
2022/01/27 14:38:04;;;;;;;36.03;15.98;;;;;;;;;;8423913;28;20061;-79
2022/01/27 14:42:11;;;;;;;60.00;22.42;;;;;;;;;;8420761;28;20071;-78
2022/01/27 14:46:20;;;;;;;67.22;29.17;;;;;;;;;;8425337;28;20048;-80
2022/01/27 14:50:24;;;;;;;37.97;16.73;;;;;;;;;;8423972;28;20040;-78
2022/01/27 14:54:27;;;;;;;118.90;41.28;;;;;;;;;;8424451;28;20064;-78
2022/01/27 14:58:35;;;;;;;62.55;25.70;;;;;;;;;;8419865;28;20097;-78
2022/01/27 15:02:45;;;;;;;66.50;27.52;;;;;;;;;;8424069;28;20126;-77
2022/01/27 15:06:50;;;;;;;68.60;30.33;;;;;;;;;;8417409;28;20048;-79
2022/01/27 15:10:53;;;;;;;63.72;27.52;;;;;;;;;;8424512;28;20047;-77
2022/01/27 15:19:34;;;;;;;64.53;28.15;;;;;;;;;;8412264;28;20062;-80
2022/01/27 15:23:41;;;;;;;44.35;21.92;;;;;;;;;;8420776;28;20059;-79
2022/01/27 15:27:46;;;;;;;41.90;19.77;;;;;;;;;;8419394;28;20048;-79
2022/01/27 15:31:52;;;;;;;52.78;24.48;;;;;;;;;;8422666;28;20117;-78
2022/01/27 15:35:57;;;;;;;41.25;21.13;;;;;;;;;;8424720;28;20055;-79
2022/01/27 15:40:01;;;;;;;40.58;19.17;;;;;;;;;;8420118;28;20068;-78
2022/01/27 15:44:05;;;;;;;50.92;23.10;;;;;;;;;;8419813;28;20480;-79
2022/01/27 15:48:10;;;;;;;52.10;23.60;;;;;;;;;;8418781;28;20043;-79
2022/01/27 15:52:15;;;;;;;53.95;24.63;;;;;;;;;;8425803;28;20048;-78
2022/01/27 15:56:18;;;;;;;55.50;21.85;;;;;;;;;;8414626;28;20106;-79
2022/01/27 16:00:24;;;;;;;88.25;35.60;;;;;;;;;;8416967;28;20043;-79
2022/01/27 16:04:32;;;;;;;50.03;20.60;;;;;;;;;;8415978;28;20060;-78
2022/01/27 16:08:36;;;;;;;57.13;24.13;;;;;;;;;;8415437;28;20044;-81
2022/01/27 16:12:43;;;;;;;59.45;26.23;;;;;;;;;;8419233;28;20164;-78
2022/01/27 16:16:50;;;;;;;56.08;23.65;;;;;;;;;;8414958;28;20397;-79
2022/01/27 16:20:58;;;;;;;45.00;21.75;;;;;;;;;;8416570;28;20048;-78
2022/01/27 16:25:15;;;;;;;39.78;18.05;;;;;;;;;;8412398;28;20476;-79
2022/01/27 16:29:20;;;;;;;45.58;18.52;;;;;;;;;;8416719;28;20081;-80
2022/01/27 16:33:32;;;;;;;48.90;20.83;;;;;;;;;;8419819;28;20503;-78
2022/01/27 16:37:39;;;;;;;;;;;;;;;;;;8419233;28;20067;-79
2022/01/27 16:41:44;;;;;;;48.03;19.85;;;;;;;;;;8414609;28;19920;-78
2022/01/27 16:45:53;;;;;;;109.03;37.33;;;;;;;;;;8416924;28;20488;-80
2022/01/27 16:50:00;;;;;;;63.53;25.13;;;;;;;;;;8419653;28;20052;-78
2022/01/27 16:54:07;;;;;;;43.25;18.48;;;;;;;;;;8417562;28;20045;-79
2022/01/27 16:58:10;;;;;;;99.15;36.65;;;;;;;;;;8410164;28;20520;-79
2022/01/27 17:02:19;;;;;;;53.13;24.15;;;;;;;;;;8416761;28;20049;-79
2022/01/27 17:06:28;;;;;;;51.20;23.23;;;;;;;;;;8416417;28;20048;-79
2022/01/27 17:10:38;;;;;;;47.53;19.73;;;;;;;;;;8412441;28;20044;-78
2022/01/27 17:14:43;;;;;;;40.70;19.50;;;;;;;;;;8417683;28;20036;-79
2022/01/27 17:18:50;;;;;;;46.38;22.33;;;;;;;;;;8412591;28;20158;-78
2022/01/27 17:27:25;;;;;;;48.53;21.42;;;;;;;;;;8412663;28;20053;-79
2022/01/27 17:31:49;;;;;;;41.97;20.33;;;;;;;;;;8414617;28;20040;-80
2022/01/27 17:35:53;;;;;;;44.10;20.23;;;;;;;;;;8416422;28;20056;-79
2022/01/27 17:40:06;;;;;;;53.22;21.70;;;;;;;;;;8409533;28;20044;-80
2022/01/27 17:44:45;;;;;;;39.03;17.60;;;;;;;;;;8415202;28;20048;-80
2022/01/27 17:48:48;;;;;;;38.15;17.00;;;;;;;;;;8413962;28;20048;-81
2022/01/27 17:52:53;;;;;;;49.42;21.98;;;;;;;;;;8416035;28;20435;-80
2022/01/27 17:56:59;;;;;;;44.53;21.75;;;;;;;;;;8424842;28;20411;-81
2022/01/27 18:01:07;;;;;;;39.30;18.10;;;;;;;;;;8423803;28;20457;-78
2022/01/27 18:05:11;;;;;;;54.38;25.77;;;;;;;;;;8418434;28;20101;-79
2022/01/27 18:09:16;;;;;;;52.90;23.55;;;;;;;;;;8417665;28;20109;-79
2022/01/27 18:13:20;;;;;;;47.95;20.02;;;;;;;;;;8414462;28;20054;-79
2022/01/27 18:17:26;;;;;;;42.95;19.55;;;;;;;;;;8422936;28;20051;-79
2022/01/27 18:21:31;;;;;;;40.67;17.90;;;;;;;;;;8419802;28;20429;-80
2022/01/27 18:25:35;;;;;;;49.95;22.77;;;;;;;;;;8407556;28;20903;-79
2022/01/27 18:29:50;;;;;;;55.70;24.08;;;;;;;;;;8425621;28;20068;-77
2022/01/27 18:34:02;;;;;;;58.95;26.63;;;;;;;;;;8425875;28;20060;-79
2022/01/27 18:38:19;;;;;;;47.97;21.48;;;;;;;;;;8427026;28;20055;-79
2022/01/27 18:43:02;;;;;;;91.80;34.08;;;;;;;;;;8431894;28;20461;-79
2022/01/27 18:47:08;;;;;;;65.32;28.48;;;;;;;;;;8431955;28;20048;-79
2022/01/27 18:51:42;;;;;;;98.10;32.58;;;;;;;;;;8431523;28;20040;-78
2022/01/27 18:55:50;;;;;;;43.92;20.17;;;;;;;;;;8430504;28;20475;-80
2022/01/27 18:59:54;;;;;;;40.95;20.15;;;;;;;;;;8431867;28;20075;-79
2022/01/27 19:03:59;;;;;;;53.85;26.08;;;;;;;;;;8431740;28;20044;-79
2022/01/27 19:08:12;;;;;;;87.25;33.45;;;;;;;;;;8430608;28;20131;-79
2022/01/27 19:12:30;;;;;;;49.03;22.70;;;;;;;;;;8430217;28;20127;-79
2022/01/27 19:16:34;;;;;;;36.63;16.55;;;;;;;;;;8424222;28;20056;-78
2022/01/27 19:20:44;;;;;;;39.95;18.20;;;;;;;;;;8429906;28;20044;-78
2022/01/27 19:24:52;;;;;;;31.88;15.07;;;;;;;;;;8424422;28;20044;-80
2022/01/27 19:28:56;;;;;;;29.23;14.57;;;;;;;;;;8423775;28;20044;-77
2022/01/27 19:33:02;;;;;;;39.45;18.48;;;;;;;;;;8423862;28;20079;-79
2022/01/27 19:37:07;;;;;;;36.72;18.73;;;;;;;;;;8429785;28;20249;-78
2022/01/27 19:41:13;;;;;;;33.67;15.88;;;;;;;;;;8424179;28;20068;-79
2022/01/27 19:45:19;;;;;;;31.35;15.27;;;;;;;;;;8429277;28;20052;-81
2022/01/27 19:49:25;;;;;;;45.13;20.77;;;;;;;;;;8422358;28;20040;-81
2022/01/27 19:53:29;;;;;;;43.65;18.05;;;;;;;;;;8429620;28;20089;-80
2022/01/27 19:57:37;;;;;;;34.03;14.63;;;;;;;;;;8429099;28;20048;-79
2022/01/27 20:01:42;;;;;;;36.03;16.42;;;;;;;;;;8428813;28;20044;-79
2022/01/27 20:06:15;;;;;;;57.88;23.00;;;;;;;;;;8429316;28;20040;-79
2022/01/27 20:10:27;;;;;;;35.75;17.60;;;;;;;;;;8429517;28;20036;-79
2022/01/27 20:14:33;;;;;;;41.78;18.65;;;;;;;;;;8428839;28;20101;-81
2022/01/27 20:18:39;;;;;;;39.13;15.57;;;;;;;;;;8429262;28;20044;-80
2022/01/27 20:22:44;;;;;;;52.60;19.98;;;;;;;;;;8427891;28;20063;-79
2022/01/27 20:26:51;;;;;;;52.72;19.30;;;;;;;;;;8429501;28;20051;-80
2022/01/27 20:30:57;;;;;;;43.92;18.42;;;;;;;;;;8429263;28;20040;-81
2022/01/27 20:35:03;;;;;;;43.63;17.85;;;;;;;;;;8429299;28;20052;-81
2022/01/27 20:39:09;;;;;;;37.65;16.50;;;;;;;;;;8435955;28;20044;-80
2022/01/27 20:43:15;;;;;;;45.92;19.15;;;;;;;;;;8435271;28;20421;-81
2022/01/27 20:47:23;;;;;;;40.78;17.50;;;;;;;;;;8435190;28;20060;-80
2022/01/27 20:51:27;;;;;;;33.30;15.30;;;;;;;;;;8435300;28;20450;-80
2022/01/27 20:55:32;;;;;;;32.15;14.48;;;;;;;;;;8434952;28;20336;-81
2022/01/27 20:59:36;;;;;;;40.33;16.02;;;;;;;;;;8434700;28;20392;-81
2022/01/27 21:03:42;;;;;;;37.03;16.27;;;;;;;;;;8433803;28;20124;-80
2022/01/27 21:07:47;;;;;;;36.13;15.95;;;;;;;;;;8434437;28;20048;-80
2022/01/27 21:11:52;;;;;;;43.00;16.95;;;;;;;;;;8434558;28;20048;-79
2022/01/27 21:15:59;;;;;;;37.95;16.45;;;;;;;;;;8434808;28;20071;-81
2022/01/27 21:20:05;;;;;;;35.70;16.42;;;;;;;;;;8434054;28;20047;-82
2022/01/27 21:24:10;;;;;;;34.85;15.30;;;;;;;;;;8433997;28;20048;-80
2022/01/27 21:28:13;;;;;;;37.85;18.10;;;;;;;;;;8434775;28;20407;-81
2022/01/27 21:32:20;;;;;;;36.35;16.77;;;;;;;;;;8433969;28;20514;-82
2022/01/27 21:36:26;;;;;;;30.85;14.45;;;;;;;;;;8434066;28;20051;-81
2022/01/27 21:40:29;;;;;;;36.25;17.00;;;;;;;;;;8433740;28;20477;-80
2022/01/27 21:44:32;;;;;;;38.15;16.63;;;;;;;;;;8433312;28;20051;-81
2022/01/27 21:48:36;;;;;;;37.70;18.10;;;;;;;;;;8432887;28;20048;-80
2022/01/27 21:52:42;;;;;;;30.70;13.68;;;;;;;;;;8432933;28;20048;-79
2022/01/27 21:56:45;;;;;;;34.10;15.27;;;;;;;;;;8432585;28;20040;-80
2022/01/27 22:00:50;;;;;;;32.72;15.27;;;;;;;;;;8432495;28;20048;-80
2022/01/27 22:04:55;;;;;;;32.55;14.95;;;;;;;;;;8426358;28;20050;-81
2022/01/27 22:09:01;;;;;;;30.38;13.85;;;;;;;;;;8426139;28;20088;-81
2022/01/27 22:13:04;;;;;;;26.92;13.20;;;;;;;;;;8425910;28;20480;-80
2022/01/27 22:17:07;;;;;;;22.58;12.00;;;;;;;;;;8432164;28;20051;-80
2022/01/27 22:21:10;;;;;;;21.40;10.70;;;;;;;;;;8432240;28;20152;-80
2022/01/27 22:25:18;;;;;;;25.58;11.88;;;;;;;;;;8432046;28;20047;-80
2022/01/27 22:29:23;;;;;;;21.30;11.05;;;;;;;;;;8431941;28;20044;-80
2022/01/27 22:33:26;;;;;;;21.52;11.80;;;;;;;;;;8431472;28;20056;-82
2022/01/27 22:37:29;;;;;;;24.25;12.02;;;;;;;;;;8431475;28;20143;-82
2022/01/27 22:41:34;;;;;;;23.02;12.10;;;;;;;;;;8432112;28;20109;-81
2022/01/27 22:45:37;;;;;;;26.27;12.00;;;;;;;;;;8431406;28;20465;-81
2022/01/27 22:49:40;;;;;;;23.85;10.68;;;;;;;;;;8431228;28;20044;-81
2022/01/27 22:53:43;;;;;;;22.80;10.85;;;;;;;;;;8431158;28;20139;-80
2022/01/27 22:57:47;;;;;;;21.65;11.48;;;;;;;;;;8431089;28;20055;-80
2022/01/27 23:01:50;;;;;;;21.77;10.55;;;;;;;;;;8430922;28;20101;-81
2022/01/27 23:05:53;;;;;;;18.02;10.43;;;;;;;;;;8430710;28;20054;-81
2022/01/27 23:09:55;;;;;;;22.52;9.98;;;;;;;;;;8430829;28;20060;-80
2022/01/27 23:14:06;;;;;;;18.83;10.25;;;;;;;;;;8430638;28;20075;-80
2022/01/27 23:18:21;;;;;;;18.98;9.40;;;;;;;;;;8430897;28;20048;-80
2022/01/27 23:22:40;;;;;;;15.40;8.90;;;;;;;;;;8430950;28;20068;-80
2022/01/27 23:26:47;;;;;;;17.23;8.88;;;;;;;;;;8430995;28;20067;-80
2022/01/27 23:31:03;;;;;;;17.70;9.48;;;;;;;;;;8430394;28;20047;-80
2022/01/27 23:35:08;;;;;;;18.88;9.70;;;;;;;;;;8430161;28;20522;-81
2022/01/27 23:43:52;;;;;;;14.73;8.68;;;;;;;;;;8429449;28;20046;-80
2022/01/27 23:48:01;;;;;;;17.27;9.45;;;;;;;;;;8430119;28;20521;-81
2022/01/27 23:52:15;;;;;;;15.85;8.05;;;;;;;;;;8428818;28;20127;-81
2022/01/27 23:56:25;;;;;;;13.98;8.18;;;;;;;;;;8413435;28;20040;-81
